Terminal Aerodrome Forecast
Issued by NWS

Home | Current Version | Previous Version | Text Only | Print | Product List | Glossary On
Versions: 1 2 3 4 5 6 7 8 9 10 11 12 13 14 15 16 17 18 19 20
000
FTUS42 KILM 271508 AAA
TAFCRE
TAF AMD
KCRE 271508Z 2715/2812 19012KT P6SM SCT040 BKN250
     FM280300 20010KT P6SM BKN150
     FM280800 21010KT P6SM VCSH SCT006 BKN025=

USA.gov is the U.S. government's official web portal to all federal, state and local government web resources and services.